Carroll, Maryland
Current Conditions -  °F | °C
As of 1:54 AM on Monday 24 Nov 2014 (Local Time) from KBWI Reporting Station
Light Rain Light Rain  
Wind Chill: 59°   Ceiling: 1100
Heat Index: 59°   Visibility: 10mi
Dew Point: 57°   Wind: 15mph
Humidity: 93%   Direction: 150°SSE
Pressure: 29.68"   Gusts: 25mph
Location:  39.2853°N, 76.6905°W
Report Text: KBWI 240654Z 15013G22KT 10SM -RA SCT006 BKN011 OVC018 15/14 A2968 RMK AO2 SLP049 P0015 T01500139
Loading
Personal Weather Stations






























Interactive Weather Map New forecast layout! Learn more

10-Day Weather Forecast

Advertisements
Track Severe Weather on mobile